Time;durP1;ratioP1;P1;durP2;ratioP2;P2;SDS_P1;SDS_P2;PMS_P1;PMS_P2;Temp;Humidity;BMP_temperature;BMP_pressure;BME280_temperature;BME280_humidity;BME280_pressure;Samples;Min_cycle;Max_cycle;Signal;HPM_P1;HPM_P2
2022/07/09 00:01:10;;;;;;;3.78;2.10;;;;;;;18.99;64.39;96191.78;5014786;28;20451;-63
2022/07/09 00:03:37;;;;;;;2.13;1.92;;;;;;;18.95;64.86;96185.06;5014771;28;20496;-63
2022/07/09 00:06:04;;;;;;;3.35;2.00;;;;;;;18.93;64.10;96179.88;5014602;28;20172;-63
2022/07/09 00:08:32;;;;;;;2.03;1.90;;;;;;;18.89;63.87;96172.28;5014663;28;20068;-63
2022/07/09 00:10:59;;;;;;;3.65;2.25;;;;;;;18.79;62.96;96166.84;5014461;28;20396;-63
2022/07/09 00:13:26;;;;;;;4.85;1.92;;;;;;;18.80;63.87;96169.38;5014667;28;20061;-63
2022/07/09 00:15:55;;;;;;;3.20;2.10;;;;;;;18.78;62.92;96171.31;5014672;28;20149;-63
2022/07/09 00:18:23;;;;;;;2.00;1.90;;;;;;;18.80;63.64;96164.09;5014523;28;20057;-63
2022/07/09 00:20:50;;;;;;;2.65;2.08;;;;;;;18.80;63.45;96164.09;5014602;28;20454;-63
2022/07/09 00:23:17;;;;;;;2.70;1.75;;;;;;;18.81;63.28;96170.22;5014355;28;20409;-63
2022/07/09 00:25:44;;;;;;;3.92;1.88;;;;;;;18.78;63.27;96165.19;5014358;28;20476;-63
2022/07/09 00:28:11;;;;;;;3.67;1.73;;;;;;;18.66;63.08;96165.16;5014284;28;20045;-62
2022/07/09 00:30:38;;;;;;;6.13;2.17;;;;;;;18.69;63.34;96161.41;5014149;28;20393;-62
2022/07/09 00:33:07;;;;;;;3.60;2.03;;;;;;;18.58;63.50;96148.16;5014332;28;20049;-63
2022/07/09 00:35:34;;;;;;;4.72;1.73;;;;;;;18.55;63.76;96149.25;5014253;28;20050;-63
2022/07/09 00:38:02;;;;;;;4.65;2.15;;;;;;;18.39;62.85;96136.34;5013974;28;20046;-62
2022/07/09 00:40:29;;;;;;;3.90;2.15;;;;;;;18.39;63.18;96142.47;5036855;28;20110;-63
2022/07/09 00:42:56;;;;;;;2.50;1.77;;;;;;;18.37;63.56;96140.91;5053700;28;20049;-63
2022/07/09 00:45:23;;;;;;;1.90;1.80;;;;;;;18.35;64.17;96141.03;5053598;28;20501;-62
2022/07/09 00:47:51;;;;;;;2.28;2.08;;;;;;;18.32;64.33;96141.25;5053719;28;20081;-63
2022/07/09 00:50:20;;;;;;;2.83;1.95;;;;;;;18.29;64.35;96136.19;5053586;28;20045;-62
2022/07/09 00:52:48;;;;;;;2.05;1.90;;;;;;;18.25;64.72;96132.09;5053421;28;20052;-62
2022/07/09 00:55:15;;;;;;;2.30;2.10;;;;;;;18.25;64.34;96134.75;5053459;28;20464;-62
2022/07/09 00:57:43;;;;;;;1.90;1.80;;;;;;;18.23;64.24;96134.84;5053516;28;20157;-62
2022/07/09 01:00:12;;;;;;;2.90;1.95;;;;;;;18.17;64.24;96136.16;5053420;28;20060;-62
2022/07/09 01:02:39;;;;;;;2.20;1.83;;;;;;;18.10;63.88;96137.59;5053538;28;20049;-62
2022/07/09 01:05:08;;;;;;;4.70;1.83;;;;;;;18.04;64.01;96130.94;5053406;28;20552;-63
2022/07/09 01:07:36;;;;;;;2.50;1.98;;;;;;;17.98;64.41;96128.72;5053250;28;20128;-62
2022/07/09 01:10:04;;;;;;;3.65;1.80;;;;;;;17.88;64.42;96128.56;5053354;28;20045;-63
2022/07/09 01:12:33;;;;;;;5.43;2.10;;;;;;;17.80;64.40;96128.31;5053182;28;20064;-63
2022/07/09 01:15:00;;;;;;;2.35;1.90;;;;;;;17.75;64.42;96128.63;5053234;28;20041;-63
2022/07/09 01:17:27;;;;;;;2.53;2.10;;;;;;;17.68;64.59;96124.75;5053263;28;20115;-62
2022/07/09 01:19:55;;;;;;;2.17;1.98;;;;;;;17.61;64.83;96136.75;5053065;28;20052;-63
2022/07/09 01:22:23;;;;;;;3.72;2.00;;;;;;;17.54;64.85;96136.34;5053091;28;20052;-63
2022/07/09 01:24:53;;;;;;;2.08;1.88;;;;;;;17.48;64.93;96134.97;5053070;28;20045;-63
2022/07/09 01:27:20;;;;;;;2.50;2.25;;;;;;;17.46;64.95;96141.34;5053159;28;20124;-62
2022/07/09 01:29:49;;;;;;;2.33;2.13;;;;;;;17.43;65.04;96135.31;5053048;28;20049;-63
2022/07/09 01:32:16;;;;;;;1.90;1.80;;;;;;;17.35;64.92;96131.53;5052951;28;20133;-63
2022/07/09 01:34:44;;;;;;;1.90;1.80;;;;;;;17.26;64.63;96122.47;5052916;28;20045;-63
2022/07/09 01:37:11;;;;;;;6.25;2.00;;;;;;;17.22;64.76;96128.94;5053118;28;20059;-62
2022/07/09 01:39:49;;;;;;;4.15;1.90;;;;;;;17.18;64.75;96126.50;5052595;28;20045;-63
2022/07/09 01:42:17;;;;;;;2.90;1.73;;;;;;;17.16;64.79;96125.78;5052898;28;20106;-62
2022/07/09 01:44:44;;;;;;;4.07;2.15;;;;;;;17.07;65.15;96133.53;5052978;28;20049;-63
2022/07/09 01:47:14;;;;;;;4.28;1.90;;;;;;;16.85;65.23;96143.75;5052930;28;20453;-63
2022/07/09 01:49:41;;;;;;;5.68;2.20;;;;;;;16.71;65.23;96147.38;5052859;28;20414;-63
2022/07/09 01:52:09;;;;;;;3.22;1.90;;;;;;;16.70;65.41;96144.84;5055712;28;20466;-63
2022/07/09 01:54:36;;;;;;;2.60;1.77;;;;;;;16.64;65.52;96146.09;5056865;28;20052;-63
2022/07/09 01:57:05;;;;;;;5.00;1.88;;;;;;;16.62;65.61;96146.19;5056938;28;20183;-62
2022/07/09 01:59:33;;;;;;;2.65;1.80;;;;;;;16.57;65.61;96155.38;5056773;28;20098;-62
2022/07/09 02:02:01;;;;;;;3.10;1.92;;;;;;;16.50;65.76;96154.97;5056846;28;20457;-63
2022/07/09 02:04:28;;;;;;;4.72;1.95;;;;;;;16.48;66.13;96156.84;5056597;28;20060;-63
2022/07/09 02:06:56;;;;;;;2.63;1.95;;;;;;;16.47;66.02;96166.59;5056576;28;20059;-62
2022/07/09 02:09:23;;;;;;;5.15;1.95;;;;;;;16.44;65.84;96161.53;5056486;28;20057;-63
2022/07/09 02:11:50;;;;;;;2.10;1.90;;;;;;;16.40;65.82;96165.28;5056465;28;20055;-62
2022/07/09 02:14:19;;;;;;;2.53;2.13;;;;;;;16.18;66.19;96174.66;5056488;28;20051;-62
2022/07/09 02:16:46;;;;;;;2.63;1.80;;;;;;;16.13;66.61;96166.19;5056481;28;20041;-62
2022/07/09 02:19:13;;;;;;;2.53;2.10;;;;;;;16.09;66.77;96170.84;5056354;28;20123;-62
2022/07/09 02:21:40;;;;;;;2.20;1.98;;;;;;;16.03;67.09;96165.97;5056416;28;20064;-62
2022/07/09 02:24:07;;;;;;;8.20;2.45;;;;;;;15.94;67.05;96159.47;5056286;28;20106;-62
2022/07/09 02:26:34;;;;;;;4.07;2.25;;;;;;;15.88;67.26;96167.78;5056217;28;20091;-62
2022/07/09 02:29:02;;;;;;;2.30;2.10;;;;;;;15.83;67.74;96169.91;5056184;28;20052;-62
2022/07/09 02:31:30;;;;;;;2.20;2.00;;;;;;;15.78;68.17;96160.47;5056159;28;20123;-62
2022/07/09 02:33:57;;;;;;;9.60;2.15;;;;;;;15.66;68.21;96166.56;5056025;28;20056;-62
2022/07/09 02:36:24;;;;;;;3.65;2.20;;;;;;;15.71;68.73;96161.00;5056384;28;20048;-62
2022/07/09 02:38:52;;;;;;;4.55;2.20;;;;;;;15.73;68.50;96159.09;5055966;28;20053;-62
2022/07/09 02:41:19;;;;;;;1.77;1.67;;;;;;;15.66;68.66;96156.84;5055904;28;20052;-63
2022/07/09 02:43:46;;;;;;;5.95;2.08;;;;;;;15.65;68.62;96155.16;5055974;28;20053;-62
2022/07/09 02:46:13;;;;;;;1.90;1.80;;;;;;;15.70;68.63;96159.28;5055885;28;20049;-62
2022/07/09 02:48:42;;;;;;;3.83;2.70;;;;;;;15.77;68.81;96161.44;5055843;28;20049;-62
2022/07/09 02:51:09;;;;;;;2.40;2.20;;;;;;;15.79;68.34;96154.28;5055839;28;20041;-62
2022/07/09 02:53:36;;;;;;;2.42;2.00;;;;;;;15.80;68.43;96163.00;5055947;28;20084;-62
2022/07/09 02:56:03;;;;;;;2.65;2.00;;;;;;;15.83;68.46;96162.00;5055696;28;20052;-62
2022/07/09 02:58:31;;;;;;;3.08;2.25;;;;;;;15.83;68.53;96156.72;5055620;28;20044;-62
2022/07/09 03:00:59;;;;;;;2.13;1.92;;;;;;;15.92;68.54;96156.94;5055794;28;20045;-62
2022/07/09 03:03:27;;;;;;;3.78;2.28;;;;;;;15.98;68.25;96152.25;5055312;28;20115;-62
2022/07/09 03:05:55;;;;;;;4.60;2.00;;;;;;;15.94;68.48;96156.84;5055517;28;20080;-62
2022/07/09 03:08:22;;;;;;;8.27;2.25;;;;;;;15.97;68.20;96161.09;5055478;28;20048;-62
2022/07/09 03:10:50;;;;;;;3.80;2.28;;;;;;;16.06;68.23;96154.38;5055530;28;20044;-63
2022/07/09 03:13:17;;;;;;;4.40;2.03;;;;;;;16.09;68.05;96148.88;5055280;28;20053;-63
2022/07/09 03:15:44;;;;;;;2.45;2.25;;;;;;;16.15;68.15;96156.41;5055291;28;20084;-62
2022/07/09 03:18:11;;;;;;;3.45;2.15;;;;;;;16.15;68.03;96151.13;5055302;28;20068;-63
2022/07/09 03:20:38;;;;;;;5.28;2.17;;;;;;;16.13;67.72;96155.63;5055247;28;20045;-63
2022/07/09 03:23:07;;;;;;;2.20;2.00;;;;;;;16.16;67.76;96150.16;5055282;28;20060;-63
2022/07/09 03:25:34;;;;;;;3.28;2.03;;;;;;;16.19;67.84;96149.97;5055175;28;20107;-62
2022/07/09 03:28:01;;;;;;;8.10;1.98;;;;;;;16.19;67.83;96155.25;5055130;28;20439;-63
2022/07/09 03:30:28;;;;;;;8.32;2.20;;;;;;;16.29;67.90;96158.13;5055093;28;20048;-62
2022/07/09 03:32:55;;;;;;;2.83;2.63;;;;;;;16.43;67.81;96157.16;5054900;28;20505;-63
2022/07/09 03:35:22;;;;;;;3.00;2.00;;;;;;;16.55;67.71;96158.13;5055028;28;20073;-62
2022/07/09 03:37:49;;;;;;;2.13;1.92;;;;;;;16.62;67.51;96148.84;5054841;28;20049;-62
2022/07/09 03:40:18;;;;;;;2.70;2.03;;;;;;;16.89;67.14;96147.88;5054765;28;20063;-63
2022/07/09 03:42:45;;;;;;;3.60;1.95;;;;;;;17.24;65.40;96142.88;5054796;28;20049;-63
2022/07/09 03:45:12;;;;;;;6.32;2.30;;;;;;;17.63;64.74;96138.31;5055013;28;20055;-63
2022/07/09 03:47:39;;;;;;;4.30;1.80;;;;;;;18.04;64.11;96141.50;5054727;28;20484;-63
2022/07/09 03:50:08;;;;;;;4.20;1.92;;;;;;;18.50;60.79;96141.66;5054676;28;20044;-63
2022/07/09 03:52:35;;;;;;;3.55;2.22;;;;;;;18.78;58.73;96142.16;5054556;28;20045;-63
2022/07/09 03:55:02;;;;;;;3.25;1.70;;;;;;;18.91;59.14;96144.69;5054586;28;20056;-63
2022/07/09 03:57:30;;;;;;;3.53;1.80;;;;;;;19.01;58.01;96142.19;5054465;28;20128;-63
2022/07/09 03:59:58;;;;;;;3.72;2.15;;;;;;;19.06;57.68;96132.03;5054542;28;20499;-63
2022/07/09 04:02:25;;;;;;;2.63;2.05;;;;;;;19.10;57.69;96142.44;5054357;28;20045;-63
2022/07/09 04:04:52;;;;;;;2.58;1.80;;;;;;;19.17;57.80;96144.47;5054396;28;20084;-63
2022/07/09 04:07:19;;;;;;;3.95;2.08;;;;;;;19.26;58.90;96131.47;5054313;28;20091;-63
2022/07/09 04:09:46;;;;;;;4.15;1.80;;;;;;;19.37;59.17;96142.06;5054331;28;20517;-63
2022/07/09 04:12:13;;;;;;;3.60;2.03;;;;;;;19.46;56.57;96143.13;5054218;28;20482;-63
2022/07/09 04:14:41;;;;;;;2.85;1.88;;;;;;;19.56;56.25;96148.50;5053406;28;20110;-63
2022/07/09 04:17:08;;;;;;;2.03;1.83;;;;;;;19.64;57.31;96147.91;5054300;28;20131;-63
2022/07/09 04:19:36;;;;;;;2.63;2.00;;;;;;;19.83;55.01;96144.56;5054282;28;20073;-63
2022/07/09 04:22:03;;;;;;;5.68;2.15;;;;;;;19.95;55.27;96137.41;5054103;28;20048;-63
2022/07/09 04:24:30;;;;;;;2.92;1.90;;;;;;;20.07;55.23;96135.59;5054093;28;20392;-63
2022/07/09 04:26:57;;;;;;;3.08;2.03;;;;;;;20.15;54.74;96140.25;5053969;28;20052;-63
2022/07/09 04:29:25;;;;;;;5.47;2.40;;;;;;;20.33;55.00;96137.88;5053925;28;20048;-63
2022/07/09 04:31:53;;;;;;;3.03;1.95;;;;;;;20.52;53.26;96141.63;5053879;28;20057;-63
2022/07/09 04:34:20;;;;;;;5.15;2.42;;;;;;;20.56;53.78;96141.22;5053950;28;20057;-63
2022/07/09 04:36:49;;;;;;;7.38;2.13;;;;;;;20.69;53.47;96142.84;5053862;28;20107;-63
2022/07/09 04:39:16;;;;;;;5.25;2.20;;;;;;;20.87;53.92;96139.56;5053497;28;20052;-63
2022/07/09 04:41:43;;;;;;;4.78;2.50;;;;;;;20.87;52.35;96134.25;5053718;28;20055;-63
2022/07/09 04:44:15;;;;;;;4.85;2.40;;;;;;;20.82;53.73;96138.16;5053719;28;20084;-63
2022/07/09 04:46:43;;;;;;;3.00;2.28;;;;;;;20.72;53.71;96134.63;5053581;28;20041;-63
2022/07/09 04:49:11;;;;;;;9.13;2.40;;;;;;;20.66;53.78;96135.13;5053632;28;20406;-64
2022/07/09 04:51:38;;;;;;;8.18;2.50;;;;;;;20.68;53.89;96134.03;5053486;28;20406;-63
2022/07/09 04:54:06;;;;;;;6.25;2.55;;;;;;;20.68;54.32;96133.22;5053453;28;20049;-63
2022/07/09 04:56:33;;;;;;;2.83;2.45;;;;;;;20.71;53.82;96147.06;5053513;28;20057;-63
2022/07/09 04:59:02;;;;;;;5.78;2.97;;;;;;;20.79;54.07;96132.25;5053535;28;20099;-63
2022/07/09 05:01:29;;;;;;;2.90;2.58;;;;;;;20.84;53.71;96135.38;5053352;28;20053;-63
2022/07/09 05:03:57;;;;;;;3.67;2.50;;;;;;;20.91;53.71;96135.72;5053352;28;20151;-62
2022/07/09 05:06:26;;;;;;;4.95;2.22;;;;;;;21.07;53.10;96133.41;5053293;28;20051;-63
2022/07/09 05:08:53;;;;;;;4.72;2.22;;;;;;;21.21;52.42;96128.69;5053195;28;20051;-62
2022/07/09 05:11:20;;;;;;;2.30;2.10;;;;;;;21.33;53.05;96127.63;5053462;28;20106;-62
2022/07/09 05:13:48;;;;;;;5.63;2.33;;;;;;;21.41;51.97;96124.28;5053180;28;20486;-62
2022/07/09 05:16:15;;;;;;;4.60;2.33;;;;;;;21.42;52.80;96127.75;5053299;28;20102;-62
2022/07/09 05:18:42;;;;;;;5.13;2.30;;;;;;;21.36;52.41;96133.63;5053138;28;20060;-62
2022/07/09 05:21:10;;;;;;;2.60;2.40;;;;;;;21.07;52.79;96135.22;5053056;28;20092;-61
2022/07/09 05:23:39;;;;;;;3.95;2.40;;;;;;;20.81;52.82;96138.28;5053201;28;20414;-62
2022/07/09 05:26:06;;;;;;;3.45;2.75;;;;;;;20.62;53.57;96125.75;5052983;28;20056;-62
2022/07/09 05:28:33;;;;;;;4.70;2.50;;;;;;;20.52;54.04;96131.00;5053059;28;20041;-62
2022/07/09 05:31:01;;;;;;;6.40;2.60;;;;;;;20.40;54.18;96123.09;5053001;28;20049;-63
2022/07/09 05:33:28;;;;;;;3.10;2.80;;;;;;;20.43;54.72;96133.47;5052868;28;20060;-63
2022/07/09 05:35:55;;;;;;;3.97;2.65;;;;;;;20.47;55.12;96127.91;5053187;28;20099;-62
2022/07/09 05:38:22;;;;;;;3.33;2.70;;;;;;;20.54;54.56;96129.06;5052983;28;20045;-63
2022/07/09 05:40:51;;;;;;;4.70;2.65;;;;;;;20.54;55.10;96129.91;5052754;28;20518;-62
2022/07/09 05:43:18;;;;;;;8.80;2.80;;;;;;;20.52;53.70;96133.66;5052943;28;20044;-62
2022/07/09 05:45:45;;;;;;;7.55;2.53;;;;;;;20.63;54.64;96127.44;5052941;28;20106;-62
2022/07/09 05:48:12;;;;;;;5.65;2.60;;;;;;;20.66;54.05;96136.00;5052832;28;20049;-62
2022/07/09 05:50:39;;;;;;;3.38;2.80;;;;;;;20.69;53.89;96137.53;5052768;28;20538;-62
2022/07/09 05:53:06;;;;;;;9.00;2.60;;;;;;;20.68;53.86;96141.19;5052815;28;20477;-62
2022/07/09 05:55:33;;;;;;;12.05;2.72;;;;;;;20.67;54.45;96135.00;5052894;28;20108;-62
2022/07/09 05:58:02;;;;;;;6.93;2.47;;;;;;;20.75;53.62;96130.84;5052764;28;20065;-62
2022/07/09 06:00:29;;;;;;;4.28;2.60;;;;;;;20.83;53.94;96134.53;5052871;28;20048;-62
2022/07/09 06:02:56;;;;;;;6.35;2.97;;;;;;;20.98;53.86;96141.34;5052851;28;20045;-62
2022/07/09 06:05:24;;;;;;;4.97;3.20;;;;;;;21.04;53.64;96146.94;5052661;28;20045;-62
2022/07/09 06:07:51;;;;;;;3.40;2.55;;;;;;;21.14;52.85;96156.78;5052619;28;20441;-62
2022/07/09 06:10:19;;;;;;;6.38;2.60;;;;;;;21.23;53.32;96150.69;5052722;28;20780;-62
2022/07/09 06:12:47;;;;;;;3.95;2.47;;;;;;;21.21;52.68;96152.63;5052603;28;20081;-62
2022/07/09 06:15:16;;;;;;;2.80;2.50;;;;;;;21.29;52.66;96155.47;5052744;28;20441;-62
2022/07/09 06:17:43;;;;;;;3.85;2.60;;;;;;;21.31;53.07;96158.81;5052658;28;20107;-63
2022/07/09 06:20:11;;;;;;;4.63;2.47;;;;;;;21.46;53.18;96151.28;5052541;28;20068;-62
2022/07/09 06:22:39;;;;;;;3.35;2.40;;;;;;;21.53;53.44;96143.63;5052477;28;20052;-62
2022/07/09 06:25:07;;;;;;;2.90;2.60;;;;;;;21.56;52.77;96146.03;5052548;28;20052;-62
2022/07/09 06:27:34;;;;;;;6.40;2.58;;;;;;;21.52;52.83;96141.09;5052475;28;20044;-62
2022/07/09 06:30:01;;;;;;;5.18;2.70;;;;;;;21.44;53.66;96152.41;5052483;28;20049;-62
2022/07/09 06:32:30;;;;;;;2.65;2.45;;;;;;;21.46;53.65;96143.31;5052571;28;20056;-62
2022/07/09 06:34:57;;;;;;;4.85;2.55;;;;;;;21.54;53.22;96144.44;5052639;28;20049;-62
2022/07/09 06:37:24;;;;;;;3.17;2.25;;;;;;;21.76;53.97;96145.22;5054206;28;20080;-62
2022/07/09 06:39:55;;;;;;;2.47;2.20;;;;;;;22.04;52.95;96132.06;5055837;28;20156;-61
2022/07/09 06:42:22;;;;;;;7.68;2.78;;;;;;;22.12;51.78;96120.72;5056012;28;20441;-62
2022/07/09 06:44:49;;;;;;;5.93;2.67;;;;;;;21.96;51.80;96122.13;5055866;28;20132;-62
2022/07/09 06:47:17;;;;;;;7.38;2.55;;;;;;;22.00;52.29;96128.00;5055921;28;20055;-62
2022/07/09 06:49:46;;;;;;;5.95;2.58;;;;;;;22.02;52.92;96123.38;5055903;28;20049;-62
2022/07/09 06:52:13;;;;;;;4.00;2.45;;;;;;;22.25;52.70;96125.75;5055832;28;20091;-62
2022/07/09 06:54:40;;;;;;;2.67;2.25;;;;;;;22.54;52.41;96120.38;5055817;28;20063;-62
2022/07/09 06:57:09;;;;;;;2.55;2.13;;;;;;;22.99;51.10;96114.53;5055705;28;20102;-63
2022/07/09 06:59:36;;;;;;;4.03;2.10;;;;;;;23.19;49.63;96116.09;5055894;28;20049;-62
2022/07/09 07:02:04;;;;;;;3.80;2.30;;;;;;;22.95;49.66;96125.47;5055700;28;20053;-62
2022/07/09 07:04:31;;;;;;;6.63;2.63;;;;;;;22.71;50.44;96115.31;5055576;28;20479;-62
2022/07/09 07:07:00;;;;;;;4.68;2.70;;;;;;;22.56;50.23;96110.41;5055535;28;20475;-62
2022/07/09 07:09:28;;;;;;;8.10;2.45;;;;;;;22.44;51.12;96109.75;5055459;28;20051;-61
2022/07/09 07:11:56;;;;;;;4.22;2.72;;;;;;;22.41;50.96;96106.50;5055500;28;20057;-62
2022/07/09 07:14:23;;;;;;;7.22;2.47;;;;;;;22.38;51.23;96112.13;5055363;28;20049;-62
2022/07/09 07:16:52;;;;;;;4.82;2.78;;;;;;;22.99;50.28;96114.53;5055377;28;20045;-62
2022/07/09 07:19:21;;;;;;;6.47;2.45;;;;;;;23.56;49.60;96114.38;5055342;28;20513;-62
2022/07/09 07:21:49;;;;;;;14.02;2.78;;;;;;;23.70;48.00;96117.53;5055301;28;20048;-62
2022/07/09 07:24:17;;;;;;;4.47;2.53;;;;;;;23.87;46.73;96123.03;5055093;28;20056;-62
2022/07/09 07:26:45;;;;;;;4.00;2.63;;;;;;;23.75;47.98;96109.06;5055239;28;20414;-61
2022/07/09 07:29:13;;;;;;;5.57;2.30;;;;;;;23.53;47.83;96114.69;5055085;28;20045;-62
2022/07/09 07:31:40;;;;;;;3.55;2.28;;;;;;;23.17;48.40;96120.75;5054915;28;20126;-62
2022/07/09 07:34:07;;;;;;;3.25;2.38;;;;;;;23.15;48.93;96117.38;5054993;28;20049;-62
2022/07/09 07:36:35;;;;;;;4.60;2.10;;;;;;;23.09;50.02;96134.00;5053835;28;20501;-61
2022/07/09 07:39:04;;;;;;;2.58;2.28;;;;;;;22.77;49.39;96133.38;5055038;28;20463;-62
2022/07/09 07:41:33;;;;;;;7.25;2.38;;;;;;;22.69;49.38;96134.09;5054873;28;20084;-62
2022/07/09 07:44:00;;;;;;;3.35;2.53;;;;;;;22.65;48.41;96132.72;5054865;28;20052;-61
2022/07/09 07:46:28;;;;;;;4.78;2.42;;;;;;;22.54;50.70;96149.69;5054754;28;20053;-62
2022/07/09 07:48:55;;;;;;;4.78;2.38;;;;;;;22.52;49.77;96146.34;5054725;28;20445;-63
2022/07/09 07:51:24;;;;;;;5.22;2.13;;;;;;;22.69;48.78;96147.44;5054746;28;20068;-63
2022/07/09 07:53:51;;;;;;;2.30;2.10;;;;;;;22.91;48.43;96141.91;5054618;28;20048;-64
2022/07/09 07:56:19;;;;;;;5.60;2.20;;;;;;;23.16;48.53;96139.56;5054539;28;20049;-62
2022/07/09 07:58:48;;;;;;;3.63;2.45;;;;;;;23.26;47.29;96137.69;5054617;28;20110;-63
2022/07/09 08:01:15;;;;;;;2.30;2.08;;;;;;;23.34;47.96;96137.78;5054502;28;20045;-64
2022/07/09 08:03:43;;;;;;;3.10;2.03;;;;;;;23.26;47.63;96147.53;5054366;28;20051;-63
2022/07/09 08:06:11;;;;;;;2.42;2.10;;;;;;;23.09;47.66;96142.00;5054386;28;20129;-64
2022/07/09 08:08:38;;;;;;;3.15;2.25;;;;;;;23.10;48.30;96149.00;5054360;28;20516;-64
2022/07/09 08:11:10;;;;;;;2.88;2.30;;;;;;;23.01;48.42;96142.72;5054448;28;20053;-63
2022/07/09 08:13:39;;;;;;;4.85;2.53;;;;;;;23.05;48.19;96151.25;5054190;28;20103;-63
2022/07/09 08:16:08;;;;;;;8.73;2.03;;;;;;;22.95;47.84;96143.28;5054217;28;20044;-63
2022/07/09 08:18:35;;;;;;;2.63;2.13;;;;;;;22.94;47.97;96147.78;5054230;28;20044;-64
2022/07/09 08:21:03;;;;;;;7.75;2.47;;;;;;;23.06;48.29;96139.63;5054167;28;20044;-63
2022/07/09 08:23:30;;;;;;;2.88;2.22;;;;;;;23.01;48.49;96136.53;5054035;28;20139;-63
2022/07/09 08:25:58;;;;;;;4.78;2.25;;;;;;;22.88;48.07;96137.72;5054071;28;20111;-63
2022/07/09 08:28:25;;;;;;;4.32;2.10;;;;;;;22.97;48.81;96146.66;5054023;28;20102;-64
2022/07/09 08:30:56;;;;;;;5.43;2.20;;;;;;;23.02;49.13;96156.91;5054070;28;20048;-64
2022/07/09 08:33:25;;;;;;;3.35;2.03;;;;;;;23.01;48.26;96158.72;5053886;28;20049;-64
2022/07/09 08:35:52;;;;;;;4.82;2.10;;;;;;;22.92;49.48;96156.91;5053841;28;20510;-63
2022/07/09 08:38:20;;;;;;;4.47;2.58;;;;;;;23.00;49.10;96151.72;5053809;28;20410;-63
2022/07/09 08:40:48;;;;;;;4.72;2.30;;;;;;;23.09;48.47;96156.13;5053564;28;20049;-62
2022/07/09 08:43:17;;;;;;;9.43;2.40;;;;;;;22.99;48.46;96147.34;5053691;28;20415;-63
2022/07/09 08:45:48;;;;;;;5.07;2.47;;;;;;;22.96;48.36;96139.63;5053713;28;20486;-63
2022/07/09 08:48:15;;;;;;;9.77;2.58;;;;;;;23.25;48.55;96135.16;5053537;28;20063;-64
2022/07/09 08:50:44;;;;;;;6.43;2.05;;;;;;;23.40;47.41;96136.38;5053735;28;20090;-63
2022/07/09 08:53:14;;;;;;;3.22;2.30;;;;;;;23.42;47.89;96139.72;5053567;28;20376;-63
2022/07/09 08:55:42;;;;;;;4.20;2.33;;;;;;;23.62;47.08;96139.63;5053662;28;19974;-63
2022/07/09 08:58:11;;;;;;;2.92;2.30;;;;;;;23.54;47.58;96131.53;5053692;28;20053;-62
2022/07/09 09:00:38;;;;;;;3.38;2.25;;;;;;;23.44;47.37;96135.09;5052910;28;20107;-61
2022/07/09 09:03:06;;;;;;;4.53;2.45;;;;;;;23.52;47.22;96134.34;5053357;28;20051;-62
2022/07/09 09:05:34;;;;;;;6.18;2.40;;;;;;;23.63;48.30;96138.63;5053370;28;20059;-62
2022/07/09 09:08:18;;;;;;;2.92;2.33;;;;;;;23.54;47.62;96137.69;5053228;28;20414;-62
2022/07/09 09:10:47;;;;;;;4.53;2.20;;;;;;;23.44;47.08;96134.25;5053337;28;20053;-62
2022/07/09 09:13:16;;;;;;;4.50;2.60;;;;;;;23.35;47.30;96128.78;5053391;28;20049;-62
2022/07/09 09:15:48;;;;;;;2.58;2.38;;;;;;;23.39;47.82;96125.88;5053313;28;20040;-62
2022/07/09 09:18:15;;;;;;;2.70;2.15;;;;;;;23.46;47.51;96126.94;5053247;28;20045;-61
2022/07/09 09:20:46;;;;;;;3.50;2.22;;;;;;;23.55;47.48;96127.88;5053128;28;20487;-62
2022/07/09 09:23:20;;;;;;;4.88;2.58;;;;;;;23.66;48.16;96124.97;5053103;28;20049;-62
2022/07/09 09:25:48;;;;;;;4.00;2.03;;;;;;;23.83;46.84;96133.16;5053111;28;20057;-62
2022/07/09 09:28:15;;;;;;;2.45;2.25;;;;;;;23.85;47.09;96131.19;5053109;28;20441;-62
2022/07/09 09:30:46;;;;;;;3.38;2.25;;;;;;;24.02;46.99;96123.31;5051952;28;20136;-62
2022/07/09 09:33:18;;;;;;;5.78;2.67;;;;;;;24.19;46.21;96125.19;5053245;28;20052;-62
2022/07/09 09:35:46;;;;;;;3.08;2.30;;;;;;;24.27;44.86;96123.56;5052888;28;20059;-62
2022/07/09 09:38:13;;;;;;;5.53;2.38;;;;;;;24.33;45.01;96128.28;5053240;28;20127;-62
2022/07/09 09:40:46;;;;;;;5.38;2.50;;;;;;;24.37;44.23;96135.00;5052490;28;20388;-62
2022/07/09 09:43:21;;;;;;;7.05;2.63;;;;;;;24.24;44.78;96130.06;5052994;28;20071;-62
2022/07/09 09:45:51;;;;;;;5.53;2.30;;;;;;;24.21;45.47;96135.72;5053069;28;20048;-62
2022/07/09 09:48:19;;;;;;;4.35;2.35;;;;;;;24.26;44.76;96132.56;5053069;28;20045;-62
2022/07/09 09:50:50;;;;;;;3.13;2.00;;;;;;;24.23;43.42;96142.56;5052799;28;20041;-63
2022/07/09 09:53:21;;;;;;;5.97;2.13;;;;;;;24.14;44.91;96143.47;5052818;28;20471;-63
2022/07/09 09:55:51;;;;;;;3.13;1.95;;;;;;;24.19;44.22;96138.53;5052863;28;20045;-63
2022/07/09 09:58:20;;;;;;;2.67;1.98;;;;;;;24.30;43.49;96133.94;5052866;28;20048;-63
2022/07/09 10:00:48;;;;;;;4.43;1.90;;;;;;;24.30;43.04;96132.13;5052852;28;20041;-64
2022/07/09 10:03:17;;;;;;;7.10;1.98;;;;;;;24.34;44.81;96130.81;5052935;28;20473;-64
2022/07/09 10:05:45;;;;;;;4.35;2.10;;;;;;;24.27;44.42;96126.22;5052698;28;20052;-63
2022/07/09 10:08:12;;;;;;;2.03;1.83;;;;;;;24.42;43.81;96124.69;5052785;28;20420;-64
2022/07/09 10:10:42;;;;;;;2.40;2.00;;;;;;;24.42;43.50;96126.50;5052882;28;20045;-63
2022/07/09 10:13:20;;;;;;;4.22;1.67;;;;;;;24.35;43.09;96126.31;5055577;28;20063;-64
2022/07/09 10:15:51;;;;;;;7.80;2.45;;;;;;;24.45;42.98;96111.03;5056402;28;20524;-63
2022/07/09 10:18:19;;;;;;;2.67;2.17;;;;;;;24.62;43.24;96108.44;5056502;28;20045;-63
2022/07/09 10:20:46;;;;;;;3.80;1.70;;;;;;;24.67;42.31;96107.97;5056406;28;20048;-64
2022/07/09 10:23:23;;;;;;;2.72;1.92;;;;;;;24.65;41.28;96116.13;5056401;28;20049;-64
2022/07/09 10:25:55;;;;;;;4.25;1.98;;;;;;;24.55;41.14;96102.03;5056395;28;20059;-63
2022/07/09 10:28:25;;;;;;;3.67;2.03;;;;;;;24.64;41.02;96109.13;5056449;28;20405;-64
2022/07/09 10:30:53;;;;;;;3.10;1.80;;;;;;;24.70;41.33;96110.31;5056465;28;20482;-64
2022/07/09 10:33:25;;;;;;;2.28;1.83;;;;;;;24.66;40.43;96111.63;5056138;28;20580;-63
2022/07/09 10:35:53;;;;;;;1.95;1.63;;;;;;;24.68;41.63;96112.31;5056198;28;20052;-64
2022/07/09 10:38:22;;;;;;;2.10;1.90;;;;;;;24.67;40.49;96111.47;5056223;28;20476;-63
2022/07/09 10:40:58;;;;;;;2.47;1.55;;;;;;;24.65;41.17;96110.78;5055834;28;20088;-64
2022/07/09 10:43:46;;;;;;;7.63;1.70;;;;;;;24.69;40.50;96114.00;5056027;28;20048;-64
2022/07/09 10:46:14;;;;;;;3.55;1.95;;;;;;;24.59;39.61;96098.06;5056051;28;20049;-64
2022/07/09 10:48:45;;;;;;;1.60;1.42;;;;;;;24.40;39.70;96107.97;5056039;28;20052;-63
2022/07/09 10:51:19;;;;;;;3.88;1.83;;;;;;;24.32;39.77;96103.38;5055900;28;20048;-64
2022/07/09 10:53:47;;;;;;;3.55;1.80;;;;;;;24.30;40.04;96097.38;5055886;28;20099;-63
2022/07/09 10:56:18;;;;;;;3.28;1.73;;;;;;;24.32;39.68;96110.59;5055745;28;20056;-64
2022/07/09 10:58:50;;;;;;;4.00;1.70;;;;;;;24.27;37.66;96103.03;5055744;28;20168;-64
2022/07/09 11:01:23;;;;;;;5.82;1.70;;;;;;;24.10;38.32;96105.53;5055757;28;20059;-64
2022/07/09 11:03:51;;;;;;;4.57;1.50;;;;;;;24.05;39.37;96099.00;5055707;28;20053;-64
2022/07/09 11:06:19;;;;;;;2.13;1.58;;;;;;;24.02;39.54;96100.09;5055623;28;20561;-64
2022/07/09 11:08:46;;;;;;;3.25;1.88;;;;;;;24.10;40.42;96100.19;5055455;28;20060;-64
2022/07/09 11:11:13;;;;;;;2.85;1.90;;;;;;;24.03;39.55;96093.81;5055517;28;20044;-64
2022/07/09 11:13:42;;;;;;;2.35;1.80;;;;;;;23.85;39.75;96096.47;5055524;28;20079;-64
2022/07/09 11:16:12;;;;;;;4.55;1.85;;;;;;;23.88;39.76;96101.50;5055178;28;20053;-63
2022/07/09 11:18:39;;;;;;;9.23;1.95;;;;;;;23.86;41.06;96098.16;5055326;28;20114;-64
2022/07/09 11:21:06;;;;;;;3.35;1.92;;;;;;;23.93;40.08;96099.19;5055314;28;20045;-64
2022/07/09 11:23:33;;;;;;;2.10;1.67;;;;;;;23.98;40.71;96099.59;5054888;28;20045;-63
2022/07/09 11:26:01;;;;;;;5.05;1.73;;;;;;;23.96;39.39;96088.22;5055341;28;20053;-64
2022/07/09 11:28:28;;;;;;;2.13;1.60;;;;;;;23.90;39.61;96085.34;5055245;28;20045;-64
2022/07/09 11:31:00;;;;;;;2.60;1.63;;;;;;;23.90;40.04;96099.50;5055195;28;20057;-64
2022/07/09 11:34:10;;;;;;;2.58;1.60;;;;;;;23.90;40.02;96094.16;5055115;28;20071;-64
2022/07/09 11:36:16;;;;;;;9.52;2.08;;;;;;;23.88;40.29;96100.66;5054945;28;20044;-64
2022/07/09 11:38:48;;;;;;;4.35;1.63;;;;;;;23.82;40.47;96091.44;5055276;28;20053;-64